Seattle, Washington
Current Conditions -  °F | °C
As of 6:53 PM on Saturday 22 Nov 2014 (Local Time) from KBFI Reporting Station
Broken Clouds Broken Clouds  
Wind Chill:   Ceiling: 4000
Heat Index:   Visibility: 10mi
Dew Point:   Wind: 9mph
Humidity: 86%   Direction: 140°SE
Pressure: 30.04"   Gusts: NA
Location:  47.6°N, 122.32°W
Report Text: KBFI 230253Z 14008KT 10SM SCT024 BKN040 08/06 A3004 RMK AO2 SLP173 T00780056 52029
Loading
Personal Weather Stations






























Interactive Weather Map New forecast layout! Learn more

10-Day Weather Forecast

Advertisements
Track Severe Weather on mobile